sensor_id;sensor_type;location;lat;lon;timestamp;temperature;humidity
18067;DHT22;9158;51.528;7.192;2023-07-31T00:00:06;15.70;99.90
18067;DHT22;9158;51.528;7.192;2023-07-31T00:00:39;15.80;99.90
18067;DHT22;9158;51.528;7.192;2023-07-31T00:01:10;15.80;99.90
18067;DHT22;9158;51.528;7.192;2023-07-31T00:01:41;15.80;99.90
18067;DHT22;9158;51.528;7.192;2023-07-31T00:02:13;15.80;99.90
18067;DHT22;9158;51.528;7.192;2023-07-31T00:02:44;15.80;99.90
18067;DHT22;9158;51.528;7.192;2023-07-31T00:03:15;15.80;99.90
18067;DHT22;9158;51.528;7.192;2023-07-31T00:03:46;15.80;99.90
18067;DHT22;9158;51.528;7.192;2023-07-31T00:04:18;15.80;99.90
18067;DHT22;9158;51.528;7.192;2023-07-31T00:04:49;15.70;99.90
18067;DHT22;9158;51.528;7.192;2023-07-31T00:05:20;15.70;99.90
18067;DHT22;9158;51.528;7.192;2023-07-31T00:05:51;15.70;99.90
18067;DHT22;9158;51.528;7.192;2023-07-31T00:06:23;15.70;99.90
18067;DHT22;9158;51.528;7.192;2023-07-31T00:06:54;15.60;99.90
18067;DHT22;9158;51.528;7.192;2023-07-31T00:07:25;15.60;99.90
18067;DHT22;9158;51.528;7.192;2023-07-31T00:07:55;15.60;99.90
18067;DHT22;9158;51.528;7.192;2023-07-31T00:08:27;15.60;99.90
18067;DHT22;9158;51.528;7.192;2023-07-31T00:08:58;15.60;99.90
18067;DHT22;9158;51.528;7.192;2023-07-31T00:09:29;15.60;99.90
18067;DHT22;9158;51.528;7.192;2023-07-31T00:10:00;15.70;99.90
18067;DHT22;9158;51.528;7.192;2023-07-31T00:10:33;15.70;99.90
18067;DHT22;9158;51.528;7.192;2023-07-31T00:11:04;15.70;99.90
18067;DHT22;9158;51.528;7.192;2023-07-31T00:11:35;15.70;99.90
18067;DHT22;9158;51.528;7.192;2023-07-31T00:12:06;15.70;99.90
18067;DHT22;9158;51.528;7.192;2023-07-31T00:12:42;15.70;99.90
18067;DHT22;9158;51.528;7.192;2023-07-31T00:13:14;15.70;99.90
18067;DHT22;9158;51.528;7.192;2023-07-31T00:13:44;15.70;99.90
18067;DHT22;9158;51.528;7.192;2023-07-31T00:14:15;15.70;99.90
18067;DHT22;9158;51.528;7.192;2023-07-31T00:14:47;15.70;99.90
18067;DHT22;9158;51.528;7.192;2023-07-31T00:15:18;15.70;99.90
18067;DHT22;9158;51.528;7.192;2023-07-31T00:15:49;15.70;99.90
18067;DHT22;9158;51.528;7.192;2023-07-31T00:16:20;15.70;99.90
18067;DHT22;9158;51.528;7.192;2023-07-31T00:16:52;15.70;99.90
18067;DHT22;9158;51.528;7.192;2023-07-31T00:17:23;15.70;99.90
18067;DHT22;9158;51.528;7.192;2023-07-31T00:17:54;15.80;99.90
18067;DHT22;9158;51.528;7.192;2023-07-31T00:18:25;15.80;99.90
18067;DHT22;9158;51.528;7.192;2023-07-31T00:18:57;15.80;99.90
18067;DHT22;9158;51.528;7.192;2023-07-31T00:19:28;15.80;99.90
18067;DHT22;9158;51.528;7.192;2023-07-31T00:19:59;15.80;99.90
18067;DHT22;9158;51.528;7.192;2023-07-31T00:20:31;15.80;99.90
18067;DHT22;9158;51.528;7.192;2023-07-31T00:21:02;15.80;99.90
18067;DHT22;9158;51.528;7.192;2023-07-31T00:21:33;15.80;99.90
18067;DHT22;9158;51.528;7.192;2023-07-31T00:22:04;15.80;99.90
18067;DHT22;9158;51.528;7.192;2023-07-31T00:22:36;15.80;99.90
18067;DHT22;9158;51.528;7.192;2023-07-31T00:23:07;15.80;99.90
18067;DHT22;9158;51.528;7.192;2023-07-31T00:23:38;15.80;99.90
18067;DHT22;9158;51.528;7.192;2023-07-31T00:24:09;15.90;99.90
18067;DHT22;9158;51.528;7.192;2023-07-31T00:24:41;15.90;99.90
18067;DHT22;9158;51.528;7.192;2023-07-31T00:25:12;15.90;99.90
18067;DHT22;9158;51.528;7.192;2023-07-31T00:25:43;15.90;99.90
18067;DHT22;9158;51.528;7.192;2023-07-31T00:26:15;15.90;99.90
18067;DHT22;9158;51.528;7.192;2023-07-31T00:26:46;15.90;99.90
18067;DHT22;9158;51.528;7.192;2023-07-31T00:27:17;15.90;99.90
18067;DHT22;9158;51.528;7.192;2023-07-31T00:27:50;15.90;99.90
18067;DHT22;9158;51.528;7.192;2023-07-31T00:28:21;15.90;99.90
18067;DHT22;9158;51.528;7.192;2023-07-31T00:28:52;15.90;99.90
18067;DHT22;9158;51.528;7.192;2023-07-31T00:29:23;15.90;99.90
18067;DHT22;9158;51.528;7.192;2023-07-31T00:29:55;15.90;99.90
18067;DHT22;9158;51.528;7.192;2023-07-31T00:30:26;15.90;99.90
18067;DHT22;9158;51.528;7.192;2023-07-31T00:30:58;15.90;99.90
18067;DHT22;9158;51.528;7.192;2023-07-31T00:31:30;15.90;99.90
18067;DHT22;9158;51.528;7.192;2023-07-31T00:32:01;15.90;99.90
18067;DHT22;9158;51.528;7.192;2023-07-31T00:32:32;15.50;99.90
18067;DHT22;9158;51.528;7.192;2023-07-31T00:33:04;15.80;99.90
18067;DHT22;9158;51.528;7.192;2023-07-31T00:33:37;15.90;99.90
18067;DHT22;9158;51.528;7.192;2023-07-31T00:34:08;15.90;99.90
18067;DHT22;9158;51.528;7.192;2023-07-31T00:34:40;15.90;99.90
18067;DHT22;9158;51.528;7.192;2023-07-31T00:35:11;15.90;99.90
18067;DHT22;9158;51.528;7.192;2023-07-31T00:35:42;15.90;99.90
18067;DHT22;9158;51.528;7.192;2023-07-31T00:36:13;15.90;99.90
18067;DHT22;9158;51.528;7.192;2023-07-31T00:36:44;15.90;99.90
18067;DHT22;9158;51.528;7.192;2023-07-31T00:37:15;15.90;99.90
18067;DHT22;9158;51.528;7.192;2023-07-31T00:37:47;15.90;99.90
18067;DHT22;9158;51.528;7.192;2023-07-31T00:38:18;15.90;99.90
18067;DHT22;9158;51.528;7.192;2023-07-31T00:38:49;15.80;99.90
18067;DHT22;9158;51.528;7.192;2023-07-31T00:39:20;15.90;99.90
18067;DHT22;9158;51.528;7.192;2023-07-31T00:39:51;15.90;99.90
18067;DHT22;9158;51.528;7.192;2023-07-31T00:40:22;15.90;99.90
18067;DHT22;9158;51.528;7.192;2023-07-31T00:40:53;15.90;99.90
18067;DHT22;9158;51.528;7.192;2023-07-31T00:41:24;15.80;99.90
18067;DHT22;9158;51.528;7.192;2023-07-31T00:41:55;15.80;99.90
18067;DHT22;9158;51.528;7.192;2023-07-31T00:42:27;15.80;99.90
18067;DHT22;9158;51.528;7.192;2023-07-31T00:42:59;15.90;99.90
18067;DHT22;9158;51.528;7.192;2023-07-31T00:43:30;15.90;99.90
18067;DHT22;9158;51.528;7.192;2023-07-31T00:44:01;15.90;99.90
18067;DHT22;9158;51.528;7.192;2023-07-31T00:44:33;15.90;99.90
18067;DHT22;9158;51.528;7.192;2023-07-31T00:45:05;15.90;99.90
18067;DHT22;9158;51.528;7.192;2023-07-31T00:45:36;15.90;99.90
18067;DHT22;9158;51.528;7.192;2023-07-31T00:46:07;15.80;99.90
18067;DHT22;9158;51.528;7.192;2023-07-31T00:46:39;15.90;99.90
18067;DHT22;9158;51.528;7.192;2023-07-31T00:47:11;15.90;99.90
18067;DHT22;9158;51.528;7.192;2023-07-31T00:47:42;15.80;99.90
18067;DHT22;9158;51.528;7.192;2023-07-31T00:48:12;15.90;99.90
18067;DHT22;9158;51.528;7.192;2023-07-31T00:48:44;15.90;99.90
18067;DHT22;9158;51.528;7.192;2023-07-31T00:49:16;15.90;99.90
18067;DHT22;9158;51.528;7.192;2023-07-31T00:49:47;15.90;99.90
18067;DHT22;9158;51.528;7.192;2023-07-31T00:50:19;15.90;99.90
18067;DHT22;9158;51.528;7.192;2023-07-31T00:50:50;15.90;99.90
18067;DHT22;9158;51.528;7.192;2023-07-31T00:51:22;15.90;99.90
18067;DHT22;9158;51.528;7.192;2023-07-31T00:51:54;15.90;99.90
18067;DHT22;9158;51.528;7.192;2023-07-31T00:52:29;15.90;99.90
18067;DHT22;9158;51.528;7.192;2023-07-31T00:53:01;15.90;99.90
18067;DHT22;9158;51.528;7.192;2023-07-31T00:53:32;15.90;99.90
18067;DHT22;9158;51.528;7.192;2023-07-31T00:54:04;15.90;99.90
18067;DHT22;9158;51.528;7.192;2023-07-31T00:54:35;15.90;99.90
18067;DHT22;9158;51.528;7.192;2023-07-31T00:55:08;15.90;99.90
18067;DHT22;9158;51.528;7.192;2023-07-31T00:55:39;15.90;99.90
18067;DHT22;9158;51.528;7.192;2023-07-31T00:56:11;15.90;99.90
18067;DHT22;9158;51.528;7.192;2023-07-31T00:56:45;15.90;99.90
18067;DHT22;9158;51.528;7.192;2023-07-31T00:57:17;15.80;99.90
18067;DHT22;9158;51.528;7.192;2023-07-31T00:57:49;15.90;99.90
18067;DHT22;9158;51.528;7.192;2023-07-31T00:58:23;15.90;99.90
18067;DHT22;9158;51.528;7.192;2023-07-31T00:58:56;15.90;99.90
18067;DHT22;9158;51.528;7.192;2023-07-31T00:59:27;15.90;99.90
18067;DHT22;9158;51.528;7.192;2023-07-31T00:59:58;15.90;99.90
18067;DHT22;9158;51.528;7.192;2023-07-31T01:00:29;15.80;99.90
18067;DHT22;9158;51.528;7.192;2023-07-31T01:01:01;15.90;99.90
18067;DHT22;9158;51.528;7.192;2023-07-31T01:01:33;15.90;99.90
18067;DHT22;9158;51.528;7.192;2023-07-31T01:02:04;15.90;99.90
18067;DHT22;9158;51.528;7.192;2023-07-31T01:02:35;15.90;99.90
18067;DHT22;9158;51.528;7.192;2023-07-31T01:03:08;15.90;99.90
18067;DHT22;9158;51.528;7.192;2023-07-31T01:03:39;15.90;99.90
18067;DHT22;9158;51.528;7.192;2023-07-31T01:04:10;15.90;99.90
18067;DHT22;9158;51.528;7.192;2023-07-31T01:04:43;15.90;99.90
18067;DHT22;9158;51.528;7.192;2023-07-31T01:05:15;15.90;99.90
18067;DHT22;9158;51.528;7.192;2023-07-31T01:05:53;15.90;99.90
18067;DHT22;9158;51.528;7.192;2023-07-31T01:06:31;15.90;99.90
18067;DHT22;9158;51.528;7.192;2023-07-31T01:07:11;15.90;99.90
18067;DHT22;9158;51.528;7.192;2023-07-31T01:07:51;15.90;99.90
18067;DHT22;9158;51.528;7.192;2023-07-31T01:08:29;15.90;99.90
18067;DHT22;9158;51.528;7.192;2023-07-31T01:09:06;15.90;99.90
18067;DHT22;9158;51.528;7.192;2023-07-31T01:09:44;15.90;99.90
18067;DHT22;9158;51.528;7.192;2023-07-31T01:10:19;15.90;99.90
18067;DHT22;9158;51.528;7.192;2023-07-31T01:10:56;15.90;99.90
18067;DHT22;9158;51.528;7.192;2023-07-31T01:11:31;15.90;99.90
18067;DHT22;9158;51.528;7.192;2023-07-31T01:12:04;15.90;99.90
18067;DHT22;9158;51.528;7.192;2023-07-31T01:12:38;15.90;99.90
18067;DHT22;9158;51.528;7.192;2023-07-31T01:13:09;15.90;99.90
18067;DHT22;9158;51.528;7.192;2023-07-31T01:13:44;15.90;99.90
18067;DHT22;9158;51.528;7.192;2023-07-31T01:14:17;15.90;99.90
18067;DHT22;9158;51.528;7.192;2023-07-31T01:14:51;15.90;99.90
18067;DHT22;9158;51.528;7.192;2023-07-31T01:15:23;15.90;99.90
18067;DHT22;9158;51.528;7.192;2023-07-31T01:15:54;15.90;99.90
18067;DHT22;9158;51.528;7.192;2023-07-31T01:16:25;15.90;99.90
18067;DHT22;9158;51.528;7.192;2023-07-31T01:16:57;15.90;99.90
18067;DHT22;9158;51.528;7.192;2023-07-31T01:17:27;15.90;99.90
18067;DHT22;9158;51.528;7.192;2023-07-31T01:17:58;15.90;99.90
18067;DHT22;9158;51.528;7.192;2023-07-31T01:18:30;15.90;99.90
18067;DHT22;9158;51.528;7.192;2023-07-31T01:19:01;15.90;99.90
18067;DHT22;9158;51.528;7.192;2023-07-31T01:19:32;15.90;99.90
18067;DHT22;9158;51.528;7.192;2023-07-31T01:20:07;15.90;99.90
18067;DHT22;9158;51.528;7.192;2023-07-31T01:20:42;16.00;99.90
18067;DHT22;9158;51.528;7.192;2023-07-31T01:21:30;16.00;99.90
18067;DHT22;9158;51.528;7.192;2023-07-31T01:22:21;15.90;99.90
18067;DHT22;9158;51.528;7.192;2023-07-31T01:23:14;15.90;99.90
18067;DHT22;9158;51.528;7.192;2023-07-31T01:24:15;15.90;99.90
18067;DHT22;9158;51.528;7.192;2023-07-31T01:24:57;15.90;99.90
18067;DHT22;9158;51.528;7.192;2023-07-31T01:25:53;15.90;99.90
18067;DHT22;9158;51.528;7.192;2023-07-31T01:26:27;15.90;99.90
18067;DHT22;9158;51.528;7.192;2023-07-31T01:27:06;15.90;99.90
18067;DHT22;9158;51.528;7.192;2023-07-31T01:27:43;15.90;99.90
18067;DHT22;9158;51.528;7.192;2023-07-31T01:28:20;15.90;99.90
18067;DHT22;9158;51.528;7.192;2023-07-31T01:28:56;16.00;99.90
18067;DHT22;9158;51.528;7.192;2023-07-31T01:29:42;15.90;99.90
18067;DHT22;9158;51.528;7.192;2023-07-31T01:30:16;15.90;99.90
18067;DHT22;9158;51.528;7.192;2023-07-31T01:30:48;15.90;99.90
18067;DHT22;9158;51.528;7.192;2023-07-31T01:31:22;15.90;99.90
18067;DHT22;9158;51.528;7.192;2023-07-31T01:31:55;15.90;99.90
18067;DHT22;9158;51.528;7.192;2023-07-31T01:32:28;15.90;99.90
18067;DHT22;9158;51.528;7.192;2023-07-31T01:33:01;15.90;99.90
18067;DHT22;9158;51.528;7.192;2023-07-31T01:33:37;15.90;99.90
18067;DHT22;9158;51.528;7.192;2023-07-31T01:34:10;15.90;99.90
18067;DHT22;9158;51.528;7.192;2023-07-31T01:34:42;16.00;99.90
18067;DHT22;9158;51.528;7.192;2023-07-31T01:35:14;15.90;99.90
18067;DHT22;9158;51.528;7.192;2023-07-31T01:35:48;15.90;99.90
18067;DHT22;9158;51.528;7.192;2023-07-31T01:36:20;15.90;99.90
18067;DHT22;9158;51.528;7.192;2023-07-31T01:36:51;15.90;99.90
18067;DHT22;9158;51.528;7.192;2023-07-31T01:37:28;15.90;99.90
18067;DHT22;9158;51.528;7.192;2023-07-31T01:38:00;15.90;99.90
18067;DHT22;9158;51.528;7.192;2023-07-31T01:38:30;15.90;99.90
18067;DHT22;9158;51.528;7.192;2023-07-31T01:39:02;15.90;99.90
18067;DHT22;9158;51.528;7.192;2023-07-31T01:39:33;15.90;99.90
18067;DHT22;9158;51.528;7.192;2023-07-31T01:40:07;15.90;99.90
18067;DHT22;9158;51.528;7.192;2023-07-31T01:40:41;15.90;99.90
18067;DHT22;9158;51.528;7.192;2023-07-31T01:41:16;15.90;99.90
18067;DHT22;9158;51.528;7.192;2023-07-31T01:41:47;15.90;99.90
18067;DHT22;9158;51.528;7.192;2023-07-31T01:42:19;15.90;99.90
18067;DHT22;9158;51.528;7.192;2023-07-31T01:42:50;15.90;99.90
18067;DHT22;9158;51.528;7.192;2023-07-31T01:43:21;15.90;99.90
18067;DHT22;9158;51.528;7.192;2023-07-31T01:43:52;15.90;99.90
18067;DHT22;9158;51.528;7.192;2023-07-31T01:44:24;15.90;99.90
18067;DHT22;9158;51.528;7.192;2023-07-31T01:44:55;15.90;99.90
18067;DHT22;9158;51.528;7.192;2023-07-31T01:45:26;15.90;99.90
18067;DHT22;9158;51.528;7.192;2023-07-31T01:45:57;15.90;99.90
18067;DHT22;9158;51.528;7.192;2023-07-31T01:46:29;15.90;99.90
18067;DHT22;9158;51.528;7.192;2023-07-31T01:47:00;15.90;99.70
18067;DHT22;9158;51.528;7.192;2023-07-31T01:47:31;15.90;87.20
18067;DHT22;9158;51.528;7.192;2023-07-31T01:48:02;15.90;69.40
18067;DHT22;9158;51.528;7.192;2023-07-31T01:48:34;15.90;71.00
18067;DHT22;9158;51.528;7.192;2023-07-31T01:49:07;15.90;47.90
18067;DHT22;9158;51.528;7.192;2023-07-31T01:49:38;15.90;55.10
18067;DHT22;9158;51.528;7.192;2023-07-31T01:50:10;15.90;68.70
18067;DHT22;9158;51.528;7.192;2023-07-31T01:50:41;16.00;69.00
18067;DHT22;9158;51.528;7.192;2023-07-31T01:51:12;15.90;40.60
18067;DHT22;9158;51.528;7.192;2023-07-31T01:51:43;16.00;37.90
18067;DHT22;9158;51.528;7.192;2023-07-31T01:52:15;15.90;27.20
18067;DHT22;9158;51.528;7.192;2023-07-31T01:52:46;15.90;14.80
18067;DHT22;9158;51.528;7.192;2023-07-31T01:53:17;15.90;16.10
18067;DHT22;9158;51.528;7.192;2023-07-31T01:53:49;15.90;1.00
18067;DHT22;9158;51.528;7.192;2023-07-31T01:54:20;15.90;1.00
18067;DHT22;9158;51.528;7.192;2023-07-31T01:54:52;15.90;1.00
18067;DHT22;9158;51.528;7.192;2023-07-31T01:55:23;15.90;1.00
18067;DHT22;9158;51.528;7.192;2023-07-31T01:55:54;15.90;1.00
18067;DHT22;9158;51.528;7.192;2023-07-31T01:56:27;16.00;1.00
18067;DHT22;9158;51.528;7.192;2023-07-31T01:56:58;16.00;1.00
18067;DHT22;9158;51.528;7.192;2023-07-31T01:57:29;16.00;1.00
18067;DHT22;9158;51.528;7.192;2023-07-31T01:58:01;16.00;1.00
18067;DHT22;9158;51.528;7.192;2023-07-31T01:58:32;16.00;1.00
18067;DHT22;9158;51.528;7.192;2023-07-31T01:59:03;15.90;1.00
18067;DHT22;9158;51.528;7.192;2023-07-31T01:59:34;15.90;1.00
18067;DHT22;9158;51.528;7.192;2023-07-31T02:00:07;16.00;1.00
18067;DHT22;9158;51.528;7.192;2023-07-31T02:00:42;15.90;1.00
18067;DHT22;9158;51.528;7.192;2023-07-31T02:01:13;16.00;1.00
18067;DHT22;9158;51.528;7.192;2023-07-31T02:01:44;16.00;1.00
18067;DHT22;9158;51.528;7.192;2023-07-31T02:02:16;16.00;1.00
18067;DHT22;9158;51.528;7.192;2023-07-31T02:02:47;16.00;1.00
18067;DHT22;9158;51.528;7.192;2023-07-31T02:03:18;16.00;1.00
18067;DHT22;9158;51.528;7.192;2023-07-31T02:03:49;16.00;1.00
18067;DHT22;9158;51.528;7.192;2023-07-31T02:04:21;16.00;1.00
18067;DHT22;9158;51.528;7.192;2023-07-31T02:04:52;16.00;1.00
18067;DHT22;9158;51.528;7.192;2023-07-31T02:05:23;16.00;1.00
18067;DHT22;9158;51.528;7.192;2023-07-31T02:05:55;16.00;1.00
18067;DHT22;9158;51.528;7.192;2023-07-31T02:06:29;16.00;1.00
18067;DHT22;9158;51.528;7.192;2023-07-31T02:07:00;15.90;1.00
18067;DHT22;9158;51.528;7.192;2023-07-31T02:07:32;15.90;1.00
18067;DHT22;9158;51.528;7.192;2023-07-31T02:08:03;16.00;1.00
18067;DHT22;9158;51.528;7.192;2023-07-31T02:08:34;15.90;1.00
18067;DHT22;9158;51.528;7.192;2023-07-31T02:09:05;15.90;1.00
18067;DHT22;9158;51.528;7.192;2023-07-31T02:09:37;15.90;1.00
18067;DHT22;9158;51.528;7.192;2023-07-31T02:10:08;15.90;1.00
18067;DHT22;9158;51.528;7.192;2023-07-31T02:10:40;15.90;1.00
18067;DHT22;9158;51.528;7.192;2023-07-31T02:11:11;16.00;1.00
18067;DHT22;9158;51.528;7.192;2023-07-31T02:11:45;15.90;1.00
18067;DHT22;9158;51.528;7.192;2023-07-31T02:12:16;16.00;1.00
18067;DHT22;9158;51.528;7.192;2023-07-31T02:12:47;15.90;1.00
18067;DHT22;9158;51.528;7.192;2023-07-31T02:13:18;15.90;1.00
18067;DHT22;9158;51.528;7.192;2023-07-31T02:13:50;15.90;1.00
18067;DHT22;9158;51.528;7.192;2023-07-31T02:14:21;15.90;1.00
18067;DHT22;9158;51.528;7.192;2023-07-31T02:14:52;15.90;1.00
18067;DHT22;9158;51.528;7.192;2023-07-31T02:15:23;15.90;1.00
18067;DHT22;9158;51.528;7.192;2023-07-31T02:15:55;15.90;1.00
18067;DHT22;9158;51.528;7.192;2023-07-31T02:16:26;15.90;1.00
18067;DHT22;9158;51.528;7.192;2023-07-31T02:16:57;15.90;99.90
18067;DHT22;9158;51.528;7.192;2023-07-31T02:17:30;15.90;99.90
18067;DHT22;9158;51.528;7.192;2023-07-31T02:18:02;16.00;99.90
18067;DHT22;9158;51.528;7.192;2023-07-31T02:18:33;15.90;99.90
18067;DHT22;9158;51.528;7.192;2023-07-31T02:19:04;15.90;99.90
18067;DHT22;9158;51.528;7.192;2023-07-31T02:19:35;15.90;99.90
18067;DHT22;9158;51.528;7.192;2023-07-31T02:20:08;15.90;99.90
18067;DHT22;9158;51.528;7.192;2023-07-31T02:20:39;15.50;99.90
18067;DHT22;9158;51.528;7.192;2023-07-31T02:21:10;16.00;99.90
18067;DHT22;9158;51.528;7.192;2023-07-31T02:21:41;16.00;99.90
18067;DHT22;9158;51.528;7.192;2023-07-31T02:22:13;16.00;99.90
18067;DHT22;9158;51.528;7.192;2023-07-31T02:22:44;16.00;99.90
18067;DHT22;9158;51.528;7.192;2023-07-31T02:23:15;16.00;99.90
18067;DHT22;9158;51.528;7.192;2023-07-31T02:23:48;16.00;99.90
18067;DHT22;9158;51.528;7.192;2023-07-31T02:24:20;16.00;99.90
18067;DHT22;9158;51.528;7.192;2023-07-31T02:24:51;16.00;99.90
18067;DHT22;9158;51.528;7.192;2023-07-31T02:25:21;15.90;99.90
18067;DHT22;9158;51.528;7.192;2023-07-31T02:25:52;16.00;99.90
18067;DHT22;9158;51.528;7.192;2023-07-31T02:26:24;15.90;95.10
18067;DHT22;9158;51.528;7.192;2023-07-31T02:26:57;16.00;99.90
18067;DHT22;9158;51.528;7.192;2023-07-31T02:27:28;15.90;99.90
18067;DHT22;9158;51.528;7.192;2023-07-31T02:27:59;16.00;99.90
18067;DHT22;9158;51.528;7.192;2023-07-31T02:28:31;16.00;99.90
18067;DHT22;9158;51.528;7.192;2023-07-31T02:29:02;16.00;92.90
18067;DHT22;9158;51.528;7.192;2023-07-31T02:29:33;16.00;99.90
18067;DHT22;9158;51.528;7.192;2023-07-31T02:30:05;16.00;99.90
18067;DHT22;9158;51.528;7.192;2023-07-31T02:30:37;16.00;77.80
18067;DHT22;9158;51.528;7.192;2023-07-31T02:31:09;16.00;27.90
18067;DHT22;9158;51.528;7.192;2023-07-31T02:31:40;16.00;21.50
18067;DHT22;9158;51.528;7.192;2023-07-31T02:32:11;15.90;3.60
18067;DHT22;9158;51.528;7.192;2023-07-31T02:32:42;16.00;1.00
18067;DHT22;9158;51.528;7.192;2023-07-31T02:33:15;15.90;1.00
18067;DHT22;9158;51.528;7.192;2023-07-31T02:33:46;16.00;30.80
18067;DHT22;9158;51.528;7.192;2023-07-31T02:34:17;16.00;1.00
18067;DHT22;9158;51.528;7.192;2023-07-31T02:34:48;16.00;19.80
18067;DHT22;9158;51.528;7.192;2023-07-31T02:35:21;16.00;1.00
18067;DHT22;9158;51.528;7.192;2023-07-31T02:35:52;16.00;1.00
18067;DHT22;9158;51.528;7.192;2023-07-31T02:36:23;16.00;1.00
18067;DHT22;9158;51.528;7.192;2023-07-31T02:36:54;16.00;1.00
18067;DHT22;9158;51.528;7.192;2023-07-31T02:37:26;16.00;1.00
18067;DHT22;9158;51.528;7.192;2023-07-31T02:37:59;16.00;1.00
18067;DHT22;9158;51.528;7.192;2023-07-31T02:38:30;16.00;1.00
18067;DHT22;9158;51.528;7.192;2023-07-31T02:39:02;16.00;1.00
18067;DHT22;9158;51.528;7.192;2023-07-31T02:39:33;16.00;1.00
18067;DHT22;9158;51.528;7.192;2023-07-31T02:40:05;16.00;1.00
18067;DHT22;9158;51.528;7.192;2023-07-31T02:40:36;16.00;1.00
18067;DHT22;9158;51.528;7.192;2023-07-31T02:41:08;16.00;1.00
18067;DHT22;9158;51.528;7.192;2023-07-31T02:41:39;16.00;1.00
18067;DHT22;9158;51.528;7.192;2023-07-31T02:42:11;16.00;1.00
18067;DHT22;9158;51.528;7.192;2023-07-31T02:42:42;16.00;1.00
18067;DHT22;9158;51.528;7.192;2023-07-31T02:43:14;16.00;1.00
18067;DHT22;9158;51.528;7.192;2023-07-31T02:43:45;16.00;1.00
18067;DHT22;9158;51.528;7.192;2023-07-31T02:44:16;16.00;1.00
18067;DHT22;9158;51.528;7.192;2023-07-31T02:44:47;16.00;1.00
18067;DHT22;9158;51.528;7.192;2023-07-31T02:45:18;16.00;1.00
18067;DHT22;9158;51.528;7.192;2023-07-31T02:45:51;16.00;1.00
18067;DHT22;9158;51.528;7.192;2023-07-31T02:46:22;16.00;1.00
18067;DHT22;9158;51.528;7.192;2023-07-31T02:46:55;16.00;1.00
18067;DHT22;9158;51.528;7.192;2023-07-31T02:47:26;16.00;1.00
18067;DHT22;9158;51.528;7.192;2023-07-31T02:47:58;16.00;1.00
18067;DHT22;9158;51.528;7.192;2023-07-31T02:48:29;16.00;1.00
18067;DHT22;9158;51.528;7.192;2023-07-31T02:49:00;16.00;1.00
18067;DHT22;9158;51.528;7.192;2023-07-31T02:49:31;16.00;1.00
18067;DHT22;9158;51.528;7.192;2023-07-31T02:50:03;16.00;1.00
18067;DHT22;9158;51.528;7.192;2023-07-31T02:50:34;16.00;1.00
18067;DHT22;9158;51.528;7.192;2023-07-31T02:51:05;16.00;1.00
18067;DHT22;9158;51.528;7.192;2023-07-31T02:51:36;16.00;1.00
18067;DHT22;9158;51.528;7.192;2023-07-31T02:52:08;16.00;1.00
18067;DHT22;9158;51.528;7.192;2023-07-31T02:52:39;16.00;1.00
18067;DHT22;9158;51.528;7.192;2023-07-31T02:53:10;16.00;1.00
18067;DHT22;9158;51.528;7.192;2023-07-31T02:53:41;16.00;1.00
18067;DHT22;9158;51.528;7.192;2023-07-31T02:54:13;16.00;1.00
18067;DHT22;9158;51.528;7.192;2023-07-31T02:54:44;16.00;99.90
18067;DHT22;9158;51.528;7.192;2023-07-31T02:55:16;16.00;99.90
18067;DHT22;9158;51.528;7.192;2023-07-31T02:55:47;16.00;1.00
18067;DHT22;9158;51.528;7.192;2023-07-31T02:56:19;16.00;1.00
18067;DHT22;9158;51.528;7.192;2023-07-31T02:56:50;16.00;99.90
18067;DHT22;9158;51.528;7.192;2023-07-31T02:57:22;16.00;99.90
18067;DHT22;9158;51.528;7.192;2023-07-31T02:57:53;16.00;99.90
18067;DHT22;9158;51.528;7.192;2023-07-31T02:58:25;16.00;99.90
18067;DHT22;9158;51.528;7.192;2023-07-31T02:58:57;16.00;99.90
18067;DHT22;9158;51.528;7.192;2023-07-31T02:59:28;16.00;99.90
18067;DHT22;9158;51.528;7.192;2023-07-31T02:59:59;16.00;99.90
18067;DHT22;9158;51.528;7.192;2023-07-31T03:00:30;16.00;99.90
18067;DHT22;9158;51.528;7.192;2023-07-31T03:01:02;16.00;99.90
18067;DHT22;9158;51.528;7.192;2023-07-31T03:01:33;16.00;99.90
18067;DHT22;9158;51.528;7.192;2023-07-31T03:02:04;16.00;99.90
18067;DHT22;9158;51.528;7.192;2023-07-31T03:02:36;16.00;99.90
18067;DHT22;9158;51.528;7.192;2023-07-31T03:03:08;15.70;99.90
18067;DHT22;9158;51.528;7.192;2023-07-31T03:03:40;16.00;99.90
18067;DHT22;9158;51.528;7.192;2023-07-31T03:04:11;16.00;99.90
18067;DHT22;9158;51.528;7.192;2023-07-31T03:04:43;16.10;99.90
18067;DHT22;9158;51.528;7.192;2023-07-31T03:05:14;16.00;99.90
18067;DHT22;9158;51.528;7.192;2023-07-31T03:05:46;16.00;99.90
18067;DHT22;9158;51.528;7.192;2023-07-31T03:06:17;16.00;52.30
18067;DHT22;9158;51.528;7.192;2023-07-31T03:06:49;16.00;99.90
18067;DHT22;9158;51.528;7.192;2023-07-31T03:07:20;16.00;95.50
18067;DHT22;9158;51.528;7.192;2023-07-31T03:07:51;16.10;99.90
18067;DHT22;9158;51.528;7.192;2023-07-31T03:08:22;16.00;76.80
18067;DHT22;9158;51.528;7.192;2023-07-31T03:08:54;16.10;99.90
18067;DHT22;9158;51.528;7.192;2023-07-31T03:09:25;16.10;91.70
18067;DHT22;9158;51.528;7.192;2023-07-31T03:09:56;16.00;71.10
18067;DHT22;9158;51.528;7.192;2023-07-31T03:10:27;16.00;99.90
18067;DHT22;9158;51.528;7.192;2023-07-31T03:10:59;16.00;16.20
18067;DHT22;9158;51.528;7.192;2023-07-31T03:11:30;16.00;50.90
18067;DHT22;9158;51.528;7.192;2023-07-31T03:12:01;16.00;1.00
18067;DHT22;9158;51.528;7.192;2023-07-31T03:12:34;16.00;12.50
18067;DHT22;9158;51.528;7.192;2023-07-31T03:13:06;16.10;1.00
18067;DHT22;9158;51.528;7.192;2023-07-31T03:13:37;16.10;1.00
18067;DHT22;9158;51.528;7.192;2023-07-31T03:14:08;16.00;1.00
18067;DHT22;9158;51.528;7.192;2023-07-31T03:14:39;16.00;1.00
18067;DHT22;9158;51.528;7.192;2023-07-31T03:15:11;16.10;1.00
18067;DHT22;9158;51.528;7.192;2023-07-31T03:15:42;16.10;1.00
18067;DHT22;9158;51.528;7.192;2023-07-31T03:16:13;16.10;1.00
18067;DHT22;9158;51.528;7.192;2023-07-31T03:16:44;16.10;1.00
18067;DHT22;9158;51.528;7.192;2023-07-31T03:17:16;16.10;1.00
18067;DHT22;9158;51.528;7.192;2023-07-31T03:17:47;16.10;1.00
18067;DHT22;9158;51.528;7.192;2023-07-31T03:18:18;16.10;1.00
18067;DHT22;9158;51.528;7.192;2023-07-31T03:18:49;16.10;1.00
18067;DHT22;9158;51.528;7.192;2023-07-31T03:19:21;16.10;1.00
18067;DHT22;9158;51.528;7.192;2023-07-31T03:19:52;16.10;1.00
18067;DHT22;9158;51.528;7.192;2023-07-31T03:20:23;16.10;1.00
18067;DHT22;9158;51.528;7.192;2023-07-31T03:20:54;16.10;1.00
18067;DHT22;9158;51.528;7.192;2023-07-31T03:21:26;16.10;1.00
18067;DHT22;9158;51.528;7.192;2023-07-31T03:21:57;16.10;1.00
18067;DHT22;9158;51.528;7.192;2023-07-31T03:22:28;16.10;1.00
18067;DHT22;9158;51.528;7.192;2023-07-31T03:22:59;16.10;1.00
18067;DHT22;9158;51.528;7.192;2023-07-31T03:23:31;16.10;1.00
18067;DHT22;9158;51.528;7.192;2023-07-31T03:24:02;16.10;1.00
18067;DHT22;9158;51.528;7.192;2023-07-31T03:24:34;16.10;1.00
18067;DHT22;9158;51.528;7.192;2023-07-31T03:25:07;16.10;1.00
18067;DHT22;9158;51.528;7.192;2023-07-31T03:25:38;16.10;1.00
18067;DHT22;9158;51.528;7.192;2023-07-31T03:26:09;16.10;1.00
18067;DHT22;9158;51.528;7.192;2023-07-31T03:26:40;16.10;1.00
18067;DHT22;9158;51.528;7.192;2023-07-31T03:27:13;16.10;1.00